sensor_id;sensor_type;location;lat;lon;timestamp;P1;durP1;ratioP1;P2;durP2;ratioP2
69392;SDS011;56582;44.624;20.378;2024-02-16T00:00:06;88.85;;;32.85;;
69392;SDS011;56582;44.624;20.378;2024-02-16T00:02:33;93.85;;;35.30;;
69392;SDS011;56582;44.624;20.378;2024-02-16T00:04:58;43.10;;;19.33;;
69392;SDS011;56582;44.624;20.378;2024-02-16T00:07:24;154.87;;;58.80;;
69392;SDS011;56582;44.624;20.378;2024-02-16T00:09:50;100.28;;;37.30;;
69392;SDS011;56582;44.624;20.378;2024-02-16T00:12:15;62.47;;;25.37;;
69392;SDS011;56582;44.624;20.378;2024-02-16T00:14:41;28.98;;;14.05;;
69392;SDS011;56582;44.624;20.378;2024-02-16T00:17:07;26.65;;;11.93;;
69392;SDS011;56582;44.624;20.378;2024-02-16T00:19:35;133.13;;;48.67;;
69392;SDS011;56582;44.624;20.378;2024-02-16T00:22:01;41.87;;;18.40;;
69392;SDS011;56582;44.624;20.378;2024-02-16T00:24:27;43.33;;;18.33;;
69392;SDS011;56582;44.624;20.378;2024-02-16T00:26:52;27.75;;;15.60;;
69392;SDS011;56582;44.624;20.378;2024-02-16T00:29:18;25.60;;;13.63;;
69392;SDS011;56582;44.624;20.378;2024-02-16T00:31:44;20.92;;;11.15;;
69392;SDS011;56582;44.624;20.378;2024-02-16T00:34:10;18.33;;;10.10;;
69392;SDS011;56582;44.624;20.378;2024-02-16T00:36:36;44.30;;;20.42;;
69392;SDS011;56582;44.624;20.378;2024-02-16T00:39:01;86.80;;;35.90;;
69392;SDS011;56582;44.624;20.378;2024-02-16T00:41:28;71.10;;;31.43;;
69392;SDS011;56582;44.624;20.378;2024-02-16T00:43:54;59.50;;;26.90;;
69392;SDS011;56582;44.624;20.378;2024-02-16T00:46:21;41.88;;;19.17;;
69392;SDS011;56582;44.624;20.378;2024-02-16T00:48:48;77.03;;;32.80;;
69392;SDS011;56582;44.624;20.378;2024-02-16T00:51:18;381.83;;;139.57;;
69392;SDS011;56582;44.624;20.378;2024-02-16T00:53:45;340.50;;;120.10;;
69392;SDS011;56582;44.624;20.378;2024-02-16T00:56:11;267.98;;;97.55;;
69392;SDS011;56582;44.624;20.378;2024-02-16T00:58:39;107.80;;;44.17;;
69392;SDS011;56582;44.624;20.378;2024-02-16T01:01:06;93.25;;;35.28;;
69392;SDS011;56582;44.624;20.378;2024-02-16T01:03:37;91.93;;;34.92;;
69392;SDS011;56582;44.624;20.378;2024-02-16T01:06:03;94.47;;;36.83;;
69392;SDS011;56582;44.624;20.378;2024-02-16T01:08:30;34.20;;;16.27;;
69392;SDS011;56582;44.624;20.378;2024-02-16T01:10:56;150.43;;;60.33;;
69392;SDS011;56582;44.624;20.378;2024-02-16T01:13:21;103.45;;;44.53;;
69392;SDS011;56582;44.624;20.378;2024-02-16T01:15:47;215.40;;;84.63;;
69392;SDS011;56582;44.624;20.378;2024-02-16T01:18:13;62.93;;;27.70;;
69392;SDS011;56582;44.624;20.378;2024-02-16T01:20:38;101.10;;;40.42;;
69392;SDS011;56582;44.624;20.378;2024-02-16T01:23:04;171.23;;;55.67;;
69392;SDS011;56582;44.624;20.378;2024-02-16T01:25:30;104.22;;;36.95;;
69392;SDS011;56582;44.624;20.378;2024-02-16T01:27:57;83.60;;;29.55;;
69392;SDS011;56582;44.624;20.378;2024-02-16T01:30:23;38.50;;;17.77;;
69392;SDS011;56582;44.624;20.378;2024-02-16T01:32:48;21.60;;;12.48;;
69392;SDS011;56582;44.624;20.378;2024-02-16T01:35:14;21.63;;;10.63;;
69392;SDS011;56582;44.624;20.378;2024-02-16T01:37:42;23.65;;;12.35;;
69392;SDS011;56582;44.624;20.378;2024-02-16T01:40:08;37.30;;;18.47;;
69392;SDS011;56582;44.624;20.378;2024-02-16T01:42:42;40.13;;;17.90;;
69392;SDS011;56582;44.624;20.378;2024-02-16T01:45:09;26.33;;;15.30;;
69392;SDS011;56582;44.624;20.378;2024-02-16T01:47:39;33.88;;;19.90;;
69392;SDS011;56582;44.624;20.378;2024-02-16T01:50:07;24.58;;;15.55;;
69392;SDS011;56582;44.624;20.378;2024-02-16T01:52:34;22.13;;;14.30;;
69392;SDS011;56582;44.624;20.378;2024-02-16T01:55:02;22.93;;;14.63;;
69392;SDS011;56582;44.624;20.378;2024-02-16T01:57:30;17.02;;;10.27;;
69392;SDS011;56582;44.624;20.378;2024-02-16T01:59:56;18.45;;;9.35;;
69392;SDS011;56582;44.624;20.378;2024-02-16T02:02:22;16.38;;;11.30;;
69392;SDS011;56582;44.624;20.378;2024-02-16T02:04:48;16.63;;;9.73;;
69392;SDS011;56582;44.624;20.378;2024-02-16T02:07:14;20.13;;;10.50;;
69392;SDS011;56582;44.624;20.378;2024-02-16T02:09:40;17.80;;;9.90;;
69392;SDS011;56582;44.624;20.378;2024-02-16T02:12:07;16.50;;;9.27;;
69392;SDS011;56582;44.624;20.378;2024-02-16T02:14:34;17.48;;;9.52;;
69392;SDS011;56582;44.624;20.378;2024-02-16T02:16:59;16.37;;;8.70;;
69392;SDS011;56582;44.624;20.378;2024-02-16T02:19:25;13.35;;;8.52;;
69392;SDS011;56582;44.624;20.378;2024-02-16T02:21:51;13.75;;;8.77;;
69392;SDS011;56582;44.624;20.378;2024-02-16T02:24:17;14.43;;;8.57;;
69392;SDS011;56582;44.624;20.378;2024-02-16T02:26:43;14.73;;;7.70;;
69392;SDS011;56582;44.624;20.378;2024-02-16T02:29:08;14.13;;;8.07;;
69392;SDS011;56582;44.624;20.378;2024-02-16T02:31:34;14.03;;;8.43;;
69392;SDS011;56582;44.624;20.378;2024-02-16T02:33:59;34.00;;;17.35;;
69392;SDS011;56582;44.624;20.378;2024-02-16T02:36:25;35.80;;;16.50;;
69392;SDS011;56582;44.624;20.378;2024-02-16T02:38:51;34.20;;;15.35;;
69392;SDS011;56582;44.624;20.378;2024-02-16T02:41:16;27.93;;;12.20;;
69392;SDS011;56582;44.624;20.378;2024-02-16T02:43:44;43.10;;;17.90;;
69392;SDS011;56582;44.624;20.378;2024-02-16T02:46:14;108.85;;;34.13;;
69392;SDS011;56582;44.624;20.378;2024-02-16T02:48:46;139.47;;;44.90;;
69392;SDS011;56582;44.624;20.378;2024-02-16T02:51:11;111.82;;;39.05;;
69392;SDS011;56582;44.624;20.378;2024-02-16T02:53:37;72.22;;;26.73;;
69392;SDS011;56582;44.624;20.378;2024-02-16T02:56:03;48.60;;;19.13;;
69392;SDS011;56582;44.624;20.378;2024-02-16T02:58:29;59.30;;;25.88;;
69392;SDS011;56582;44.624;20.378;2024-02-16T03:00:55;57.83;;;24.23;;
69392;SDS011;56582;44.624;20.378;2024-02-16T03:03:21;88.13;;;32.30;;
69392;SDS011;56582;44.624;20.378;2024-02-16T03:05:47;74.60;;;29.63;;
69392;SDS011;56582;44.624;20.378;2024-02-16T03:08:13;30.05;;;13.98;;
69392;SDS011;56582;44.624;20.378;2024-02-16T03:10:39;15.40;;;10.23;;
69392;SDS011;56582;44.624;20.378;2024-02-16T03:13:05;19.42;;;11.73;;
69392;SDS011;56582;44.624;20.378;2024-02-16T03:15:32;17.98;;;9.73;;
69392;SDS011;56582;44.624;20.378;2024-02-16T03:17:58;14.80;;;8.77;;
69392;SDS011;56582;44.624;20.378;2024-02-16T03:20:24;16.13;;;7.95;;
69392;SDS011;56582;44.624;20.378;2024-02-16T03:22:50;13.45;;;8.13;;
69392;SDS011;56582;44.624;20.378;2024-02-16T03:25:15;13.13;;;9.17;;
69392;SDS011;56582;44.624;20.378;2024-02-16T03:27:41;12.80;;;8.35;;
69392;SDS011;56582;44.624;20.378;2024-02-16T03:30:07;13.47;;;7.83;;
69392;SDS011;56582;44.624;20.378;2024-02-16T03:32:33;16.30;;;9.80;;
69392;SDS011;56582;44.624;20.378;2024-02-16T03:34:59;15.30;;;9.05;;
69392;SDS011;56582;44.624;20.378;2024-02-16T03:37:25;11.33;;;8.03;;
69392;SDS011;56582;44.624;20.378;2024-02-16T03:39:51;13.65;;;9.07;;
69392;SDS011;56582;44.624;20.378;2024-02-16T03:42:16;13.82;;;8.32;;
69392;SDS011;56582;44.624;20.378;2024-02-16T03:44:43;13.17;;;7.17;;
69392;SDS011;56582;44.624;20.378;2024-02-16T03:47:09;13.75;;;7.53;;
69392;SDS011;56582;44.624;20.378;2024-02-16T03:49:34;11.67;;;8.10;;
69392;SDS011;56582;44.624;20.378;2024-02-16T03:52:00;12.55;;;8.20;;
69392;SDS011;56582;44.624;20.378;2024-02-16T03:54:26;13.93;;;7.67;;
69392;SDS011;56582;44.624;20.378;2024-02-16T03:56:55;15.10;;;8.27;;
69392;SDS011;56582;44.624;20.378;2024-02-16T03:59:20;12.77;;;7.55;;
69392;SDS011;56582;44.624;20.378;2024-02-16T04:01:46;11.33;;;6.40;;
69392;SDS011;56582;44.624;20.378;2024-02-16T04:04:12;11.77;;;6.43;;
69392;SDS011;56582;44.624;20.378;2024-02-16T04:06:38;12.25;;;7.32;;
69392;SDS011;56582;44.624;20.378;2024-02-16T04:09:04;14.57;;;8.93;;
69392;SDS011;56582;44.624;20.378;2024-02-16T04:11:33;13.83;;;6.83;;
69392;SDS011;56582;44.624;20.378;2024-02-16T04:13:59;16.23;;;8.52;;
69392;SDS011;56582;44.624;20.378;2024-02-16T04:16:24;14.63;;;8.93;;
69392;SDS011;56582;44.624;20.378;2024-02-16T04:18:50;11.60;;;6.90;;
69392;SDS011;56582;44.624;20.378;2024-02-16T04:21:16;12.15;;;6.88;;
69392;SDS011;56582;44.624;20.378;2024-02-16T04:23:42;13.93;;;7.83;;
69392;SDS011;56582;44.624;20.378;2024-02-16T04:26:07;13.45;;;8.02;;
69392;SDS011;56582;44.624;20.378;2024-02-16T04:28:33;10.93;;;7.40;;
69392;SDS011;56582;44.624;20.378;2024-02-16T04:31:00;16.02;;;7.88;;
69392;SDS011;56582;44.624;20.378;2024-02-16T04:33:25;12.20;;;6.53;;
69392;SDS011;56582;44.624;20.378;2024-02-16T04:35:51;11.40;;;7.15;;
69392;SDS011;56582;44.624;20.378;2024-02-16T04:38:17;12.50;;;7.97;;
69392;SDS011;56582;44.624;20.378;2024-02-16T04:40:43;12.25;;;7.90;;
69392;SDS011;56582;44.624;20.378;2024-02-16T04:43:08;14.50;;;8.07;;
69392;SDS011;56582;44.624;20.378;2024-02-16T04:45:34;13.93;;;8.25;;
69392;SDS011;56582;44.624;20.378;2024-02-16T04:48:04;13.05;;;8.55;;
69392;SDS011;56582;44.624;20.378;2024-02-16T04:50:31;12.47;;;7.83;;
69392;SDS011;56582;44.624;20.378;2024-02-16T04:52:58;13.93;;;7.40;;
69392;SDS011;56582;44.624;20.378;2024-02-16T04:55:23;12.50;;;7.43;;
69392;SDS011;56582;44.624;20.378;2024-02-16T04:57:49;12.87;;;7.37;;
69392;SDS011;56582;44.624;20.378;2024-02-16T05:00:14;13.50;;;7.70;;
69392;SDS011;56582;44.624;20.378;2024-02-16T05:02:40;14.70;;;8.40;;
69392;SDS011;56582;44.624;20.378;2024-02-16T05:05:06;11.83;;;6.37;;
69392;SDS011;56582;44.624;20.378;2024-02-16T05:07:32;14.48;;;8.07;;
69392;SDS011;56582;44.624;20.378;2024-02-16T05:09:58;12.50;;;6.95;;
69392;SDS011;56582;44.624;20.378;2024-02-16T05:12:24;14.50;;;8.20;;
69392;SDS011;56582;44.624;20.378;2024-02-16T05:14:50;15.48;;;8.45;;
69392;SDS011;56582;44.624;20.378;2024-02-16T05:17:17;12.43;;;6.68;;
69392;SDS011;56582;44.624;20.378;2024-02-16T05:19:43;12.57;;;6.80;;
69392;SDS011;56582;44.624;20.378;2024-02-16T05:22:09;14.97;;;8.43;;
69392;SDS011;56582;44.624;20.378;2024-02-16T05:24:35;45.63;;;13.55;;
69392;SDS011;56582;44.624;20.378;2024-02-16T05:27:00;17.57;;;7.03;;
69392;SDS011;56582;44.624;20.378;2024-02-16T05:29:26;15.30;;;8.43;;
69392;SDS011;56582;44.624;20.378;2024-02-16T05:31:52;13.80;;;8.27;;
69392;SDS011;56582;44.624;20.378;2024-02-16T05:34:18;13.10;;;7.35;;
69392;SDS011;56582;44.624;20.378;2024-02-16T05:36:44;13.30;;;8.05;;
69392;SDS011;56582;44.624;20.378;2024-02-16T05:39:10;12.60;;;7.90;;
69392;SDS011;56582;44.624;20.378;2024-02-16T05:41:46;11.93;;;7.70;;
69392;SDS011;56582;44.624;20.378;2024-02-16T05:44:11;14.75;;;8.23;;
69392;SDS011;56582;44.624;20.378;2024-02-16T05:46:37;15.25;;;7.35;;
69392;SDS011;56582;44.624;20.378;2024-02-16T05:49:03;38.73;;;24.10;;
69392;SDS011;56582;44.624;20.378;2024-02-16T05:51:36;26.98;;;16.73;;
69392;SDS011;56582;44.624;20.378;2024-02-16T05:54:04;13.93;;;7.93;;
69392;SDS011;56582;44.624;20.378;2024-02-16T05:56:30;25.25;;;14.77;;
69392;SDS011;56582;44.624;20.378;2024-02-16T05:58:59;31.37;;;18.50;;
69392;SDS011;56582;44.624;20.378;2024-02-16T06:01:27;24.40;;;15.85;;
69392;SDS011;56582;44.624;20.378;2024-02-16T06:03:54;34.85;;;22.23;;
69392;SDS011;56582;44.624;20.378;2024-02-16T06:06:20;16.23;;;10.37;;
69392;SDS011;56582;44.624;20.378;2024-02-16T06:08:45;20.55;;;10.82;;
69392;SDS011;56582;44.624;20.378;2024-02-16T06:11:11;16.97;;;10.13;;
69392;SDS011;56582;44.624;20.378;2024-02-16T06:13:36;26.60;;;16.50;;
69392;SDS011;56582;44.624;20.378;2024-02-16T06:16:04;16.42;;;10.48;;
69392;SDS011;56582;44.624;20.378;2024-02-16T06:18:33;21.45;;;11.95;;
69392;SDS011;56582;44.624;20.378;2024-02-16T06:20:59;17.23;;;10.15;;
69392;SDS011;56582;44.624;20.378;2024-02-16T06:23:25;13.97;;;8.90;;
69392;SDS011;56582;44.624;20.378;2024-02-16T06:25:50;14.80;;;9.07;;
69392;SDS011;56582;44.624;20.378;2024-02-16T06:28:16;13.73;;;8.45;;
69392;SDS011;56582;44.624;20.378;2024-02-16T06:30:41;12.83;;;7.23;;
69392;SDS011;56582;44.624;20.378;2024-02-16T06:33:07;12.97;;;7.70;;
69392;SDS011;56582;44.624;20.378;2024-02-16T06:35:32;16.33;;;8.98;;
69392;SDS011;56582;44.624;20.378;2024-02-16T06:37:58;14.20;;;7.57;;
69392;SDS011;56582;44.624;20.378;2024-02-16T06:40:23;13.17;;;8.30;;
69392;SDS011;56582;44.624;20.378;2024-02-16T06:42:51;14.35;;;7.75;;
69392;SDS011;56582;44.624;20.378;2024-02-16T06:45:17;15.30;;;7.82;;
69392;SDS011;56582;44.624;20.378;2024-02-16T06:47:42;16.47;;;9.67;;
69392;SDS011;56582;44.624;20.378;2024-02-16T06:50:08;22.70;;;10.90;;
69392;SDS011;56582;44.624;20.378;2024-02-16T06:52:34;33.75;;;14.85;;
69392;SDS011;56582;44.624;20.378;2024-02-16T06:54:59;26.00;;;15.43;;
69392;SDS011;56582;44.624;20.378;2024-02-16T06:57:25;17.20;;;10.02;;
69392;SDS011;56582;44.624;20.378;2024-02-16T06:59:50;31.60;;;20.67;;
69392;SDS011;56582;44.624;20.378;2024-02-16T07:02:17;19.52;;;13.18;;
69392;SDS011;56582;44.624;20.378;2024-02-16T07:04:43;21.27;;;14.00;;
69392;SDS011;56582;44.624;20.378;2024-02-16T07:07:10;19.90;;;12.68;;
69392;SDS011;56582;44.624;20.378;2024-02-16T07:09:36;17.05;;;11.45;;
69392;SDS011;56582;44.624;20.378;2024-02-16T07:12:02;18.20;;;10.63;;
69392;SDS011;56582;44.624;20.378;2024-02-16T07:14:27;15.85;;;9.63;;
69392;SDS011;56582;44.624;20.378;2024-02-16T07:16:53;18.13;;;10.90;;
69392;SDS011;56582;44.624;20.378;2024-02-16T07:19:19;16.47;;;9.83;;
69392;SDS011;56582;44.624;20.378;2024-02-16T07:21:44;17.30;;;8.93;;
69392;SDS011;56582;44.624;20.378;2024-02-16T07:24:10;14.43;;;8.87;;
69392;SDS011;56582;44.624;20.378;2024-02-16T07:26:35;15.70;;;8.97;;
69392;SDS011;56582;44.624;20.378;2024-02-16T07:29:01;16.10;;;11.63;;
69392;SDS011;56582;44.624;20.378;2024-02-16T07:31:32;14.82;;;9.75;;
69392;SDS011;56582;44.624;20.378;2024-02-16T07:33:58;15.45;;;9.88;;
69392;SDS011;56582;44.624;20.378;2024-02-16T07:36:24;14.57;;;9.70;;
69392;SDS011;56582;44.624;20.378;2024-02-16T07:38:49;17.30;;;10.37;;
69392;SDS011;56582;44.624;20.378;2024-02-16T07:41:15;15.02;;;9.73;;
69392;SDS011;56582;44.624;20.378;2024-02-16T07:43:40;16.07;;;9.77;;
69392;SDS011;56582;44.624;20.378;2024-02-16T07:46:06;15.87;;;10.43;;
69392;SDS011;56582;44.624;20.378;2024-02-16T07:48:33;15.75;;;11.73;;
69392;SDS011;56582;44.624;20.378;2024-02-16T07:51:00;14.30;;;10.75;;
69392;SDS011;56582;44.624;20.378;2024-02-16T07:53:27;14.88;;;9.35;;
69392;SDS011;56582;44.624;20.378;2024-02-16T07:55:53;16.27;;;10.60;;
69392;SDS011;56582;44.624;20.378;2024-02-16T07:58:19;16.83;;;10.33;;
69392;SDS011;56582;44.624;20.378;2024-02-16T08:00:44;12.83;;;8.37;;
69392;SDS011;56582;44.624;20.378;2024-02-16T08:03:10;13.10;;;8.57;;
69392;SDS011;56582;44.624;20.378;2024-02-16T08:05:36;15.30;;;8.40;;
69392;SDS011;56582;44.624;20.378;2024-02-16T08:08:01;17.73;;;10.73;;
69392;SDS011;56582;44.624;20.378;2024-02-16T08:10:27;16.77;;;11.43;;
69392;SDS011;56582;44.624;20.378;2024-02-16T08:12:52;15.33;;;8.70;;
69392;SDS011;56582;44.624;20.378;2024-02-16T08:15:18;13.15;;;8.85;;
69392;SDS011;56582;44.624;20.378;2024-02-16T08:17:50;13.43;;;7.30;;
69392;SDS011;56582;44.624;20.378;2024-02-16T08:20:16;14.40;;;10.68;;
69392;SDS011;56582;44.624;20.378;2024-02-16T08:22:42;13.00;;;8.48;;
69392;SDS011;56582;44.624;20.378;2024-02-16T08:25:08;13.50;;;8.73;;
69392;SDS011;56582;44.624;20.378;2024-02-16T08:27:33;12.80;;;8.30;;
69392;SDS011;56582;44.624;20.378;2024-02-16T08:29:59;13.53;;;9.67;;
69392;SDS011;56582;44.624;20.378;2024-02-16T08:32:27;14.95;;;10.57;;
69392;SDS011;56582;44.624;20.378;2024-02-16T08:34:53;16.30;;;9.60;;
69392;SDS011;56582;44.624;20.378;2024-02-16T08:37:21;16.45;;;11.45;;
69392;SDS011;56582;44.624;20.378;2024-02-16T08:39:46;14.07;;;7.75;;
69392;SDS011;56582;44.624;20.378;2024-02-16T08:42:13;14.27;;;8.77;;
69392;SDS011;56582;44.624;20.378;2024-02-16T08:44:38;14.23;;;8.83;;
69392;SDS011;56582;44.624;20.378;2024-02-16T08:47:05;11.88;;;7.60;;
69392;SDS011;56582;44.624;20.378;2024-02-16T08:49:32;9.45;;;6.32;;
69392;SDS011;56582;44.624;20.378;2024-02-16T08:51:59;12.73;;;6.83;;
69392;SDS011;56582;44.624;20.378;2024-02-16T08:54:24;11.73;;;8.05;;
69392;SDS011;56582;44.624;20.378;2024-02-16T08:56:51;11.43;;;6.68;;
69392;SDS011;56582;44.624;20.378;2024-02-16T08:59:18;9.50;;;6.60;;
69392;SDS011;56582;44.624;20.378;2024-02-16T09:01:43;13.20;;;9.40;;
69392;SDS011;56582;44.624;20.378;2024-02-16T09:04:09;9.33;;;5.93;;
69392;SDS011;56582;44.624;20.378;2024-02-16T09:06:34;10.50;;;7.77;;
69392;SDS011;56582;44.624;20.378;2024-02-16T09:09:00;15.38;;;12.15;;
69392;SDS011;56582;44.624;20.378;2024-02-16T09:11:25;13.10;;;7.63;;
69392;SDS011;56582;44.624;20.378;2024-02-16T09:13:51;10.70;;;7.93;;
69392;SDS011;56582;44.624;20.378;2024-02-16T09:16:17;13.63;;;9.50;;
69392;SDS011;56582;44.624;20.378;2024-02-16T09:18:42;15.63;;;10.02;;
69392;SDS011;56582;44.624;20.378;2024-02-16T09:21:08;13.67;;;8.60;;
69392;SDS011;56582;44.624;20.378;2024-02-16T09:23:34;14.27;;;10.00;;
69392;SDS011;56582;44.624;20.378;2024-02-16T09:26:01;12.95;;;8.55;;
69392;SDS011;56582;44.624;20.378;2024-02-16T09:28:29;12.23;;;8.45;;
69392;SDS011;56582;44.624;20.378;2024-02-16T09:30:55;11.80;;;9.20;;
69392;SDS011;56582;44.624;20.378;2024-02-16T09:33:21;14.23;;;8.75;;
69392;SDS011;56582;44.624;20.378;2024-02-16T09:35:50;14.60;;;8.13;;
69392;SDS011;56582;44.624;20.378;2024-02-16T09:38:16;12.45;;;7.47;;
69392;SDS011;56582;44.624;20.378;2024-02-16T09:40:41;10.03;;;7.60;;
69392;SDS011;56582;44.624;20.378;2024-02-16T09:43:07;11.48;;;7.53;;
69392;SDS011;56582;44.624;20.378;2024-02-16T09:45:33;10.17;;;7.77;;
69392;SDS011;56582;44.624;20.378;2024-02-16T09:47:59;10.50;;;7.30;;
69392;SDS011;56582;44.624;20.378;2024-02-16T09:50:25;9.93;;;6.82;;
69392;SDS011;56582;44.624;20.378;2024-02-16T09:52:52;13.60;;;7.88;;
69392;SDS011;56582;44.624;20.378;2024-02-16T09:55:19;10.90;;;7.90;;
69392;SDS011;56582;44.624;20.378;2024-02-16T09:57:45;13.48;;;8.55;;
69392;SDS011;56582;44.624;20.378;2024-02-16T10:00:11;10.32;;;7.15;;
69392;SDS011;56582;44.624;20.378;2024-02-16T10:02:42;12.60;;;7.35;;
69392;SDS011;56582;44.624;20.378;2024-02-16T10:05:14;13.60;;;7.57;;
69392;SDS011;56582;44.624;20.378;2024-02-16T10:07:42;10.82;;;7.50;;
69392;SDS011;56582;44.624;20.378;2024-02-16T10:10:24;13.75;;;7.88;;
69392;SDS011;56582;44.624;20.378;2024-02-16T10:13:01;11.80;;;8.52;;
69392;SDS011;56582;44.624;20.378;2024-02-16T10:15:32;10.38;;;6.68;;
69392;SDS011;56582;44.624;20.378;2024-02-16T10:18:06;12.73;;;7.90;;
69392;SDS011;56582;44.624;20.378;2024-02-16T10:20:33;11.95;;;7.47;;
69392;SDS011;56582;44.624;20.378;2024-02-16T10:23:17;12.30;;;7.55;;
69392;SDS011;56582;44.624;20.378;2024-02-16T10:25:43;9.63;;;6.40;;
69392;SDS011;56582;44.624;20.378;2024-02-16T10:28:09;12.93;;;8.20;;
69392;SDS011;56582;44.624;20.378;2024-02-16T10:30:38;11.70;;;9.02;;
69392;SDS011;56582;44.624;20.378;2024-02-16T10:33:06;15.27;;;9.82;;
69392;SDS011;56582;44.624;20.378;2024-02-16T10:35:34;13.05;;;7.88;;
69392;SDS011;56582;44.624;20.378;2024-02-16T10:38:01;11.88;;;7.30;;
69392;SDS011;56582;44.624;20.378;2024-02-16T10:40:41;10.33;;;7.20;;
69392;SDS011;56582;44.624;20.378;2024-02-16T10:43:07;11.90;;;7.28;;
69392;SDS011;56582;44.624;20.378;2024-02-16T10:45:37;12.10;;;8.63;;
69392;SDS011;56582;44.624;20.378;2024-02-16T10:48:04;17.25;;;11.25;;
69392;SDS011;56582;44.624;20.378;2024-02-16T10:50:34;22.38;;;13.43;;
69392;SDS011;56582;44.624;20.378;2024-02-16T10:53:04;10.23;;;8.00;;
69392;SDS011;56582;44.624;20.378;2024-02-16T10:55:41;10.63;;;7.50;;
69392;SDS011;56582;44.624;20.378;2024-02-16T10:58:09;15.80;;;9.98;;
69392;SDS011;56582;44.624;20.378;2024-02-16T11:00:47;12.10;;;8.90;;
69392;SDS011;56582;44.624;20.378;2024-02-16T11:03:15;10.93;;;8.05;;
69392;SDS011;56582;44.624;20.378;2024-02-16T11:05:42;16.90;;;10.10;;
69392;SDS011;56582;44.624;20.378;2024-02-16T11:08:15;11.35;;;8.02;;
69392;SDS011;56582;44.624;20.378;2024-02-16T11:13:27;9.73;;;6.87;;
69392;SDS011;56582;44.624;20.378;2024-02-16T11:16:00;14.13;;;8.10;;
69392;SDS011;56582;44.624;20.378;2024-02-16T11:18:30;11.95;;;8.65;;
69392;SDS011;56582;44.624;20.378;2024-02-16T11:21:00;13.55;;;8.50;;
69392;SDS011;56582;44.624;20.378;2024-02-16T11:23:27;14.70;;;8.43;;
69392;SDS011;56582;44.624;20.378;2024-02-16T11:26:00;12.50;;;8.07;;
69392;SDS011;56582;44.624;20.378;2024-02-16T11:28:27;14.80;;;9.23;;
69392;SDS011;56582;44.624;20.378;2024-02-16T11:30:54;12.95;;;9.65;;
69392;SDS011;56582;44.624;20.378;2024-02-16T11:33:19;16.17;;;8.37;;
69392;SDS011;56582;44.624;20.378;2024-02-16T11:35:55;9.95;;;6.95;;
69392;SDS011;56582;44.624;20.378;2024-02-16T11:38:22;10.25;;;6.70;;
69392;SDS011;56582;44.624;20.378;2024-02-16T11:40:58;9.17;;;7.47;;
69392;SDS011;56582;44.624;20.378;2024-02-16T11:43:33;11.15;;;6.80;;
69392;SDS011;56582;44.624;20.378;2024-02-16T11:45:58;9.60;;;6.93;;
69392;SDS011;56582;44.624;20.378;2024-02-16T11:48:25;10.80;;;6.73;;
69392;SDS011;56582;44.624;20.378;2024-02-16T11:50:59;11.68;;;7.20;;
69392;SDS011;56582;44.624;20.378;2024-02-16T11:53:27;12.35;;;6.95;;
69392;SDS011;56582;44.624;20.378;2024-02-16T11:55:55;10.30;;;7.13;;
69392;SDS011;56582;44.624;20.378;2024-02-16T11:58:22;10.20;;;6.00;;
69392;SDS011;56582;44.624;20.378;2024-02-16T12:00:49;10.32;;;6.13;;
69392;SDS011;56582;44.624;20.378;2024-02-16T12:03:19;9.88;;;6.70;;
69392;SDS011;56582;44.624;20.378;2024-02-16T12:05:52;10.98;;;6.85;;
69392;SDS011;56582;44.624;20.378;2024-02-16T12:08:19;14.05;;;8.13;;
69392;SDS011;56582;44.624;20.378;2024-02-16T12:10:47;9.07;;;6.07;;
69392;SDS011;56582;44.624;20.378;2024-02-16T12:13:15;10.95;;;6.90;;
69392;SDS011;56582;44.624;20.378;2024-02-16T12:15:43;9.85;;;6.88;;
69392;SDS011;56582;44.624;20.378;2024-02-16T12:18:10;13.65;;;8.55;;
69392;SDS011;56582;44.624;20.378;2024-02-16T12:20:35;17.07;;;12.43;;
69392;SDS011;56582;44.624;20.378;2024-02-16T12:23:10;9.80;;;6.73;;
69392;SDS011;56582;44.624;20.378;2024-02-16T12:25:36;10.32;;;6.05;;
69392;SDS011;56582;44.624;20.378;2024-02-16T12:28:02;9.65;;;7.28;;
69392;SDS011;56582;44.624;20.378;2024-02-16T12:30:28;15.97;;;10.07;;
69392;SDS011;56582;44.624;20.378;2024-02-16T12:32:53;11.55;;;6.70;;
69392;SDS011;56582;44.624;20.378;2024-02-16T12:35:19;11.20;;;7.53;;
69392;SDS011;56582;44.624;20.378;2024-02-16T12:37:45;9.93;;;6.07;;
69392;SDS011;56582;44.624;20.378;2024-02-16T12:40:11;9.60;;;6.43;;
69392;SDS011;56582;44.624;20.378;2024-02-16T12:42:36;8.93;;;6.13;;
69392;SDS011;56582;44.624;20.378;2024-02-16T12:45:03;9.23;;;6.43;;
69392;SDS011;56582;44.624;20.378;2024-02-16T12:47:30;8.98;;;6.47;;
69392;SDS011;56582;44.624;20.378;2024-02-16T12:49:56;9.05;;;6.07;;
69392;SDS011;56582;44.624;20.378;2024-02-16T12:52:22;8.60;;;6.00;;
69392;SDS011;56582;44.624;20.378;2024-02-16T12:54:48;10.73;;;6.77;;
69392;SDS011;56582;44.624;20.378;2024-02-16T12:57:14;10.05;;;6.95;;
69392;SDS011;56582;44.624;20.378;2024-02-16T12:59:39;9.00;;;5.73;;
69392;SDS011;56582;44.624;20.378;2024-02-16T13:02:05;8.93;;;6.60;;
69392;SDS011;56582;44.624;20.378;2024-02-16T13:04:30;9.43;;;7.32;;
69392;SDS011;56582;44.624;20.378;2024-02-16T13:06:57;8.60;;;5.97;;
69392;SDS011;56582;44.624;20.378;2024-02-16T13:09:23;7.88;;;4.78;;
69392;SDS011;56582;44.624;20.378;2024-02-16T13:11:48;9.13;;;5.90;;
69392;SDS011;56582;44.624;20.378;2024-02-16T13:14:19;9.60;;;7.10;;
69392;SDS011;56582;44.624;20.378;2024-02-16T13:16:45;10.98;;;6.70;;
69392;SDS011;56582;44.624;20.378;2024-02-16T13:19:11;10.17;;;6.90;;
69392;SDS011;56582;44.624;20.378;2024-02-16T13:21:36;10.43;;;6.43;;
69392;SDS011;56582;44.624;20.378;2024-02-16T13:24:02;8.30;;;5.70;;
69392;SDS011;56582;44.624;20.378;2024-02-16T13:26:27;8.27;;;5.63;;
69392;SDS011;56582;44.624;20.378;2024-02-16T13:28:53;9.90;;;5.77;;
69392;SDS011;56582;44.624;20.378;2024-02-16T13:31:19;10.98;;;5.97;;
69392;SDS011;56582;44.624;20.378;2024-02-16T13:33:46;9.38;;;6.10;;
69392;SDS011;56582;44.624;20.378;2024-02-16T13:36:11;10.03;;;6.60;;
69392;SDS011;56582;44.624;20.378;2024-02-16T13:38:36;8.97;;;6.47;;
69392;SDS011;56582;44.624;20.378;2024-02-16T13:41:02;8.33;;;5.73;;
69392;SDS011;56582;44.624;20.378;2024-02-16T13:43:30;9.00;;;6.55;;
69392;SDS011;56582;44.624;20.378;2024-02-16T13:45:55;10.70;;;7.55;;
69392;SDS011;56582;44.624;20.378;2024-02-16T13:48:23;9.38;;;6.25;;
69392;SDS011;56582;44.624;20.378;2024-02-16T13:50:49;8.40;;;6.32;;
69392;SDS011;56582;44.624;20.378;2024-02-16T13:53:15;9.90;;;6.00;;
69392;SDS011;56582;44.624;20.378;2024-02-16T13:55:42;12.25;;;6.78;;
69392;SDS011;56582;44.624;20.378;2024-02-16T13:58:11;9.50;;;7.00;;
69392;SDS011;56582;44.624;20.378;2024-02-16T14:00:37;11.75;;;6.82;;
69392;SDS011;56582;44.624;20.378;2024-02-16T14:03:03;9.47;;;6.57;;
69392;SDS011;56582;44.624;20.378;2024-02-16T14:05:31;8.38;;;5.78;;
69392;SDS011;56582;44.624;20.378;2024-02-16T14:07:57;9.15;;;6.68;;
69392;SDS011;56582;44.624;20.378;2024-02-16T14:10:22;8.90;;;6.00;;
69392;SDS011;56582;44.624;20.378;2024-02-16T14:12:48;11.20;;;7.63;;
69392;SDS011;56582;44.624;20.378;2024-02-16T14:15:13;8.48;;;6.22;;
69392;SDS011;56582;44.624;20.378;2024-02-16T14:17:49;9.70;;;7.13;;